Startpagina
METAR-TAF:

METAR-TAF

Vliegvelden :

Aeroporto João Paulo II

Ponta Delgada, Azoren, Portugal

breedte: 37-44N, lengte: 025-42W, hoogte: 71 m

Actueel weer

Dit bericht is 39 minuten geleden gemaakt, om 23:00 UTC
Wind 7 kt uit het noorden
Temperatuur 15°C
Vochtigheid 72%
Druk 1027 hPa
Zicht 10 km of meer
Weinig wolken op 2500 ft

METAR: LPPD 262300Z 01007KT 9999 FEW025 15/10 Q1027

Tijdstip: 23:39 (23:39 UTC)

Verwachting

Dit bericht is 39 minuten geleden gemaakt, om 23:00 UTC
Verwachting geldig van 27 om 00 UTC tot 27 om 24 UTC
Wind 5 kt uit variabele richting
Zicht 10 km of meer
Verspreide wolken op 2500 ft
Tijdelijke
van 27 om 00 UTC tot 27 om 24 UTC
Weinig wolken op 2000 ft
Gebroken wolken op 3500 ft
Wijzigt naar
van 27 om 12 UTC tot 27 om 14 UTC
Wind 8 kt uit het zuiden

TAF: LPPD 262300Z 2700/2724 VRB05KT 9999 SCT025 TEMPO 2700/2724 FEW020 BKN035 BECMG 2712/2714 19008KT

Waarnemingen en weersverwachtingen van meer dan 4000 vliegvelden (METAR en TAF).

De beschikbare stations zijn de gele en rode punten op de kaart.

Ga met uw muis naar het station om de naam te zien.

Klik dan om waarnemingen en weersverwachtingen te zien.

kaart wijzigen: klik op de groene knoppen met een zwart kruis om in te zoomen, op de groene knop met een streepje om uit te zoomen of op de groene pijlen voor aangrenzende kaarten.


METAR-TAF: